This is the latest recevied weather packets stored in our database for station/object OM5AST-13. If no packets are shown the sender has not sent any weather packets the latest 1 day(s).
| Time | Temp. | Humidity | Pressure | Rain* | Wind** | Luminosity | Snow |
|---|---|---|---|---|---|---|---|
| 1778119435 | 16.67° C | 66% | - | 0 mm | - | 0 W/m² | - |
| 1778118235 | 16.67° C | 66% | - | 0 mm | - | 0 W/m² | - |
| 1778117035 | 16.67° C | 67% | - | 0 mm | - | 0 W/m² | - |
| 1778115836 | 16.67° C | 66% | - | 0 mm | - | 0 W/m² | - |
| 1778113435 | 16.67° C | 67% | - | 0 mm | - | 0 W/m² | - |
| 1778105035 | 17.78° C | 65% | - | 0 mm | - | 0 W/m² | - |
| 1778103836 | 17.78° C | 64% | - | 0 mm | - | 0 W/m² | - |
| 1778101436 | 18.33° C | 63% | - | 0 mm | - | 0 W/m² | - |
| 1778088236 | 22.78° C | 46% | - | 0 mm | - | 0 W/m² | - |
| 1778066636 | 23.89° C | 45% | - | 0 mm | - | 0 W/m² | - |
| 1778060635 | 22.78° C | 51% | - | 0 mm | - | 0 W/m² | - |
| 1778059436 | 22.22° C | 53% | - | 0 mm | - | 0 W/m² | - |
| 1778057035 | 21.67° C | 54% | - | 0 mm | - | 0 W/m² | - |
| 1778049835 | 18.33° C | 62% | - | 0 mm | - | 0 W/m² | - |
| 1778048636 | 17.78° C | 63% | - | 0 mm | - | 0 W/m² | - |
| 1778041438 | 15° C | 70% | - | 0 mm | - | 0 W/m² | - |
| 1778040235 | 15° C | 71% | - | 0 mm | - | 0 W/m² | - |
| 1778039035 | 15° C | 71% | - | 0 mm | - | 0 W/m² | - |
| 1778037835 | 15° C | 70% | - | 0 mm | - | 0 W/m² | - |
| 1778036635 | 15° C | 70% | - | 0 mm | - | 0 W/m² | - |
| 1778035436 | 15° C | 69% | - | 0 mm | - | 0 W/m² | - |
* Rain latest hour (hover to see other rain measurements)
** Current wind speed in m/s (hover to see current wind gust speed)